Time;durP1;ratioP1;P1;durP2;ratioP2;P2;SDS_P1;SDS_P2;PMS_P1;PMS_P2;Temp;Humidity;BMP_temperature;BMP_pressure;BME280_temperature;BME280_humidity;BME280_pressure;Samples;Min_cycle;Max_cycle;Signal;HPM_P1;HPM_P2
2024/03/27 00:01:14;;;;;;;;;;;;;;;20.95;28.55;97532.94;4941181;29;1478;-72
2024/03/27 00:03:39;;;;;;;;;;;;;;;20.91;29.06;97532.25;4940244;29;1479;-71
2024/03/27 00:06:05;;;;;;;;;;;;;;;20.89;29.20;97517.78;4967067;28;1107;-72
2024/03/27 00:08:31;;;;;;;;;;;;;;;20.79;29.22;97520.50;4977371;28;1204;-72
2024/03/27 00:10:56;;;;;;;;;;;;;;;20.69;29.39;97521.63;4979636;28;940;-72
2024/03/27 00:13:22;;;;;;;;;;;;;;;20.70;29.15;97511.88;4963357;28;1216;-71
2024/03/27 00:15:54;;;;;;;;;;;;;;;20.67;29.13;97515.59;4975698;28;1993;-72
2024/03/27 00:18:19;;;;;;;;;;;;;;;20.53;29.28;97507.56;4976230;28;936;-72
2024/03/27 00:20:45;;;;;;;;;;;;;;;20.85;29.09;97511.44;4975849;28;1053;-71
2024/03/27 00:23:10;;;;;;;;;;;;;;;20.93;29.11;97513.56;4975892;28;809;-72
2024/03/27 00:25:36;;;;;;;;;;;;;;;21.06;28.63;97510.75;4975999;28;858;-71
2024/03/27 00:28:02;;;;;;;;;;;;;;;20.83;28.94;97503.44;4976002;28;779;-71
2024/03/27 00:30:28;;;;;;;;;;;;;;;20.79;28.95;97500.69;4978389;28;881;-72
2024/03/27 00:32:55;;;;;;;;;;;;;;;20.90;28.60;97496.75;4995114;28;882;-71
2024/03/27 00:35:21;;;;;;;;;;;;;;;20.59;28.98;97488.81;4995016;28;1981;-71
2024/03/27 00:37:47;;;;;;;;;;;;;;;20.85;28.58;97505.78;4978998;28;1539;-72
2024/03/27 00:40:12;;;;;;;;;;;;;;;20.72;29.13;97500.91;4979161;28;845;-72
2024/03/27 00:42:38;;;;;;;;;;;;;;;20.49;29.57;97492.75;4995121;28;763;-72
2024/03/27 00:45:04;;;;;;;;;;;;;;;20.81;29.28;97498.19;4981405;28;986;-71
2024/03/27 00:47:30;;;;;;;;;;;;;;;20.87;29.22;97494.81;4998079;28;756;-72
2024/03/27 00:49:56;;;;;;;;;;;;;;;21.00;29.11;97495.63;5014885;28;907;-72
2024/03/27 00:52:22;;;;;;;;;;;;;;;21.15;28.81;97496.72;5001582;28;729;-72
2024/03/27 00:54:47;;;;;;;;;;;;;;;21.02;28.93;97505.22;5036578;28;1914;-71
2024/03/27 00:57:13;;;;;;;;;;;;;;;21.06;28.92;97488.13;5035570;28;810;-71
2024/03/27 00:59:38;;;;;;;;;;;;;;;20.86;29.10;97496.06;5035403;28;1057;-71
2024/03/27 01:02:05;;;;;;;;;;;;;;;20.46;29.65;97490.78;5035702;28;794;-72
2024/03/27 01:04:31;;;;;;;;;;;;;;;20.66;29.43;97494.22;5036420;28;758;-72
2024/03/27 01:06:57;;;;;;;;;;;;;;;20.55;29.67;97499.44;5035165;28;727;-71
2024/03/27 01:09:22;;;;;;;;;;;;;;;20.67;29.65;97498.63;4997932;28;877;-72
2024/03/27 01:11:48;;;;;;;;;;;;;;;20.78;29.14;97501.94;5014479;28;850;-72
2024/03/27 01:14:13;;;;;;;;;;;;;;;20.71;29.54;97492.88;4981462;28;1903;-72
2024/03/27 01:16:39;;;;;;;;;;;;;;;21.02;28.83;97505.22;5014537;28;802;-72
2024/03/27 01:19:04;;;;;;;;;;;;;;;20.84;29.24;97504.22;4997588;28;848;-72
2024/03/27 01:21:30;;;;;;;;;;;;;;;20.85;29.17;97502.97;5014442;28;854;-71
2024/03/27 01:23:55;;;;;;;;;;;;;;;21.01;28.90;97509.28;5014341;28;838;-72
2024/03/27 01:26:21;;;;;;;;;;;;;;;20.78;28.87;97504.78;5014019;28;1051;-71
2024/03/27 01:28:46;;;;;;;;;;;;;;;20.84;28.81;97509.88;4997972;28;832;-72
2024/03/27 01:31:12;;;;;;;;;;;;;;;20.68;29.19;97508.72;5014329;28;806;-72
2024/03/27 01:33:37;;;;;;;;;;;;;;;20.57;29.39;97508.22;4981561;28;1902;-72
2024/03/27 01:36:03;;;;;;;;;;;;;;;20.55;29.52;97505.88;4981633;28;822;-72
2024/03/27 01:38:28;;;;;;;;;;;;;;;20.52;29.97;97500.31;4997459;28;1000;-72
2024/03/27 01:40:54;;;;;;;;;;;;;;;20.73;29.48;97499.69;5023914;28;1226;-72
2024/03/27 01:43:19;;;;;;;;;;;;;;;20.81;29.41;97500.25;5035023;28;1269;-72
2024/03/27 01:45:45;;;;;;;;;;;;;;;20.94;29.12;97503.09;5018566;28;748;-71
2024/03/27 01:48:10;;;;;;;;;;;;;;;20.67;29.44;97504.28;5034959;28;821;-72
2024/03/27 01:50:36;;;;;;;;;;;;;;;20.90;28.91;97494.72;5034616;28;786;-72
2024/03/27 01:53:01;;;;;;;;;;;;;;;20.78;28.97;97507.59;5034490;28;742;-71
2024/03/27 01:55:27;;;;;;;;;;;;;;;20.79;28.95;97503.53;5035815;28;1910;-72
2024/03/27 01:57:52;;;;;;;;;;;;;;;20.62;29.53;97499.19;5018131;28;806;-72
2024/03/27 02:00:18;;;;;;;;;;;;;;;20.85;29.29;97502.97;5018128;28;1200;-72
2024/03/27 02:02:44;;;;;;;;;;;;;;;20.93;28.88;97502.25;5018065;28;1253;-72
2024/03/27 02:05:10;;;;;;;;;;;;;;;21.01;28.95;97508.50;5034625;28;862;-72
2024/03/27 02:07:37;;;;;;;;;;;;;;;20.69;29.33;97509.50;5018003;28;1162;-72
2024/03/27 02:10:03;;;;;;;;;;;;;;;20.57;29.51;97508.22;5034584;28;846;-72
2024/03/27 02:12:28;;;;;;;;;;;;;;;20.47;29.57;97500.91;5013680;28;924;-72
2024/03/27 02:14:54;;;;;;;;;;;;;;;20.39;29.75;97503.09;4997361;28;1985;-72
2024/03/27 02:17:19;;;;;;;;;;;;;;;20.61;29.59;97503.28;4997629;28;763;-72
2024/03/27 02:19:45;;;;;;;;;;;;;;;20.76;29.42;97498.75;4997491;28;814;-71
2024/03/27 02:22:10;;;;;;;;;;;;;;;20.92;28.92;97502.72;5013867;28;1007;-72
2024/03/27 02:24:36;;;;;;;;;;;;;;;20.59;29.57;97493.69;4981354;28;775;-72
2024/03/27 02:27:02;;;;;;;;;;;;;;;20.83;28.93;97496.94;4982337;28;1050;-72
2024/03/27 02:29:27;;;;;;;;;;;;;;;20.98;28.75;97490.38;5017490;28;802;-72
2024/03/27 02:31:53;;;;;;;;;;;;;;;20.88;28.75;97493.56;5000670;28;786;-72
2024/03/27 02:34:18;;;;;;;;;;;;;;;20.71;29.54;97495.72;5017183;28;1902;-72
2024/03/27 02:36:44;;;;;;;;;;;;;;;20.76;29.29;97495.16;5000897;28;784;-71
2024/03/27 02:39:09;;;;;;;;;;;;;;;20.61;29.74;97496.81;5016845;28;840;-72
2024/03/27 02:41:35;;;;;;;;;;;;;;;20.89;29.20;97500.81;5000958;28;775;-71
2024/03/27 02:44:00;;;;;;;;;;;;;;;20.61;29.63;97491.97;5033071;28;900;-72
2024/03/27 02:46:26;;;;;;;;;;;;;;;20.85;29.08;97494.47;5038962;28;798;-72
2024/03/27 02:48:51;;;;;;;;;;;;;;;20.36;29.53;97503.97;5038508;28;790;-72
2024/03/27 02:51:17;;;;;;;;;;;;;;;20.72;29.06;97506.56;5037622;28;1119;-72
2024/03/27 02:53:42;;;;;;;;;;;;;;;20.72;29.24;97498.06;5038278;28;1972;-72
2024/03/27 02:56:08;;;;;;;;;;;;;;;20.85;29.15;97502.97;5037691;28;699;-72
2024/03/27 02:58:33;;;;;;;;;;;;;;;20.92;28.85;97505.56;5037640;28;1264;-72
2024/03/27 03:00:59;;;;;;;;;;;;;;;20.78;29.52;97501.94;5038958;28;763;-72
2024/03/27 03:03:24;;;;;;;;;;;;;;;20.81;29.25;97489.72;5038607;28;778;-72
2024/03/27 03:05:50;;;;;;;;;;;;;;;20.80;29.22;97493.78;5037312;28;1192;-72
2024/03/27 03:08:15;;;;;;;;;;;;;;;20.58;29.58;97490.06;5037034;28;763;-72
2024/03/27 03:10:41;;;;;;;;;;;;;;;20.81;28.88;97492.53;5037524;28;794;-71
2024/03/27 03:13:06;;;;;;;;;;;;;;;20.72;29.07;97488.81;5038290;28;852;-72
2024/03/27 03:15:32;;;;;;;;;;;;;;;20.74;29.37;97489.16;5037936;28;1980;-71
2024/03/27 03:17:57;;;;;;;;;;;;;;;20.89;28.94;97489.50;5038400;28;999;-71
2024/03/27 03:20:23;;;;;;;;;;;;;;;20.70;29.34;97483.63;5036756;28;870;-72
2024/03/27 03:22:52;;;;;;;;;;;;;;;20.68;29.47;97486.13;5037986;28;759;-71
2024/03/27 03:25:18;;;;;;;;;;;;;;;20.81;28.80;97489.72;5038636;28;843;-72
2024/03/27 03:27:43;;;;;;;;;;;;;;;20.89;28.49;97484.66;5035866;28;1029;-71
2024/03/27 03:30:09;;;;;;;;;;;;;;;20.68;29.03;97485.31;5019588;28;783;-71
2024/03/27 03:32:34;;;;;;;;;;;;;;;20.66;29.17;97480.09;4996305;28;905;-72
2024/03/27 03:35:00;;;;;;;;;;;;;;;20.83;29.13;97480.81;4980313;28;1954;-72
2024/03/27 03:37:25;;;;;;;;;;;;;;;20.54;29.89;97486.53;4979629;28;887;-72
2024/03/27 03:39:51;;;;;;;;;;;;;;;20.71;29.25;97485.19;4996483;28;849;-71
2024/03/27 03:42:16;;;;;;;;;;;;;;;21.00;28.80;97490.75;4963588;28;946;-72
2024/03/27 03:44:42;;;;;;;;;;;;;;;20.85;29.13;97483.16;4980197;28;807;-72
2024/03/27 03:47:07;;;;;;;;;;;;;;;20.33;30.01;97470.19;4979976;28;1120;-72
2024/03/27 03:49:33;;;;;;;;;;;;;;;20.81;28.94;97477.63;4995868;28;751;-71
2024/03/27 03:51:58;;;;;;;;;;;;;;;20.70;29.25;97477.16;4996118;28;932;-72
2024/03/27 03:54:24;;;;;;;;;;;;;;;20.88;29.11;97482.25;4979802;28;1971;-71
2024/03/27 03:56:49;;;;;;;;;;;;;;;20.90;29.17;97479.78;4979803;28;1070;-72
2024/03/27 03:59:15;;;;;;;;;;;;;;;20.83;29.48;97480.00;4963465;28;1670;-72
2024/03/27 04:01:41;;;;;;;;;;;;;;;20.87;29.12;97483.50;4996147;28;918;-71
2024/03/27 04:04:07;;;;;;;;;;;;;;;20.68;29.43;97480.47;5007005;28;991;-71
2024/03/27 04:06:33;;;;;;;;;;;;;;;20.86;28.93;97479.09;5016343;28;1366;-72
2024/03/27 04:08:58;;;;;;;;;;;;;;;20.84;28.81;97478.75;5032178;28;791;-71
2024/03/27 04:11:24;;;;;;;;;;;;;;;20.76;29.11;97476.16;5000055;28;1138;-72
2024/03/27 04:13:50;;;;;;;;;;;;;;;20.88;29.14;97477.41;5016351;28;1898;-71
2024/03/27 04:16:16;;;;;;;;;;;;;;;20.87;29.43;97472.19;4999873;28;1465;-72
2024/03/27 04:18:41;;;;;;;;;;;;;;;21.07;29.22;97467.09;5015348;28;1191;-72
2024/03/27 04:21:07;;;;;;;;;;;;;;;20.78;29.37;97465.19;5016073;28;1194;-72
2024/03/27 04:23:33;;;;;;;;;;;;;;;20.64;29.68;97465.63;5034604;28;842;-72
2024/03/27 04:25:58;;;;;;;;;;;;;;;20.71;29.39;97465.41;5018446;28;780;-72
2024/03/27 04:28:24;;;;;;;;;;;;;;;20.85;29.21;97466.22;5002137;28;1185;-72
2024/03/27 04:30:50;;;;;;;;;;;;;;;20.89;29.22;97472.53;5018578;28;829;-72
2024/03/27 04:33:15;;;;;;;;;;;;;;;20.62;29.73;97481.44;5017982;28;810;-72
2024/03/27 04:35:41;;;;;;;;;;;;;;;20.72;29.60;97471.84;5018254;28;1981;-72
2024/03/27 04:38:07;;;;;;;;;;;;;;;20.52;29.95;97478.53;4985388;28;1116;-72
2024/03/27 04:40:32;;;;;;;;;;;;;;;20.83;29.58;97480.00;5001755;28;1318;-72
2024/03/27 04:42:58;;;;;;;;;;;;;;;20.85;29.44;97488.81;5018220;28;877;-71
2024/03/27 04:45:23;;;;;;;;;;;;;;;21.05;29.06;97487.34;5018261;28;810;-72
2024/03/27 04:47:49;;;;;;;;;;;;;;;21.14;28.89;97478.19;5018151;28;877;-72
2024/03/27 04:50:14;;;;;;;;;;;;;;;20.95;29.30;97482.03;5033813;28;801;-71
2024/03/27 04:52:40;;;;;;;;;;;;;;;20.76;29.60;97475.34;5018385;28;923;-71
2024/03/27 04:55:05;;;;;;;;;;;;;;;20.61;29.73;97475.00;5021145;28;1906;-72
2024/03/27 04:57:31;;;;;;;;;;;;;;;20.74;29.46;97478.66;5016878;28;973;-71
2024/03/27 04:59:57;;;;;;;;;;;;;;;20.85;29.46;97483.16;5018628;28;1276;-72
2024/03/27 05:02:22;;;;;;;;;;;;;;;20.72;29.53;97489.59;5038562;28;898;-73
2024/03/27 05:04:49;;;;;;;;;;;;;;;21.06;29.18;97494.59;5022117;28;1076;-72
2024/03/27 05:07:14;;;;;;;;;;;;;;;21.07;29.22;97495.38;5038394;28;1059;-71
2024/03/27 05:09:40;;;;;;;;;;;;;;;20.79;29.53;97492.22;5022113;28;944;-71
2024/03/27 05:12:06;;;;;;;;;;;;;;;20.97;29.22;97485.19;5022116;28;931;-72
2024/03/27 05:14:31;;;;;;;;;;;;;;;20.86;29.11;97491.19;5021693;28;1914;-71
2024/03/27 05:16:57;;;;;;;;;;;;;;;20.69;29.50;97490.50;5038351;28;975;-72
2024/03/27 05:19:23;;;;;;;;;;;;;;;20.71;29.39;97482.38;5038072;28;952;-72
2024/03/27 05:21:49;;;;;;;;;;;;;;;20.96;29.32;97501.38;5038597;28;902;-72
2024/03/27 05:24:14;;;;;;;;;;;;;;;20.72;29.45;97486.78;5038122;28;949;-72
2024/03/27 05:26:40;;;;;;;;;;;;;;;20.75;29.82;97502.84;5038380;28;865;-72
2024/03/27 05:29:05;;;;;;;;;;;;;;;20.93;29.24;97512.78;5004356;28;961;-72
2024/03/27 05:31:31;;;;;;;;;;;;;;;20.67;29.84;97495.81;5038200;28;1444;-72
2024/03/27 05:33:58;;;;;;;;;;;;;;;20.74;29.53;97504.09;5021549;28;1905;-72
2024/03/27 05:36:23;;;;;;;;;;;;;;;20.98;29.21;97503.75;5038458;28;918;-72
2024/03/27 05:38:49;;;;;;;;;;;;;;;20.61;29.64;97503.28;5038302;28;1217;-72
2024/03/27 05:41:14;;;;;;;;;;;;;;;20.63;29.77;97500.81;5038189;28;1147;-71
2024/03/27 05:43:41;;;;;;;;;;;;;;;20.35;30.29;97505.22;5037888;28;1022;-72
2024/03/27 05:46:06;;;;;;;;;;;;;;;20.55;30.07;97505.06;5055588;28;973;-72
2024/03/27 05:48:32;;;;;;;;;;;;;;;20.67;29.89;97503.50;5021561;28;1106;-72
2024/03/27 05:50:57;;;;;;;;;;;;;;;20.59;29.90;97505.78;5037951;28;1158;-72
2024/03/27 05:53:23;;;;;;;;;;;;;;;20.65;29.97;97508.81;5038122;28;975;-71
2024/03/27 05:55:55;;;;;;;;;;;;;;;20.90;29.40;97508.06;5037697;28;1906;-72
2024/03/27 05:58:21;;;;;;;;;;;;;;;20.81;29.76;97505.91;5037771;28;1027;-72
2024/03/27 06:00:46;;;;;;;;;;;;;;;20.95;29.04;97515.97;5020754;28;1170;-72
2024/03/27 06:03:12;;;;;;;;;;;;;;;20.64;29.56;97510.06;5041244;28;1123;-72
2024/03/27 06:05:38;;;;;;;;;;;;;;;20.88;29.53;97521.84;5041595;28;1315;-71
2024/03/27 06:08:04;;;;;;;;;;;;;;;20.73;29.59;97510.19;5058542;28;1055;-72
2024/03/27 06:10:30;;;;;;;;;;;;;;;20.76;29.67;97520.59;5017410;28;980;-71
2024/03/27 06:12:55;;;;;;;;;;;;;;;20.95;29.36;97515.97;5001163;28;1203;-72
2024/03/27 06:15:24;;;;;;;;;;;;;;;20.75;29.86;97519.00;4984712;28;1993;-72
2024/03/27 06:17:51;;;;;;;;;;;;;;;20.79;29.72;97517.66;5017480;28;1016;-72
2024/03/27 06:20:17;;;;;;;;;;;;;;;20.61;29.91;97517.41;5001232;28;1113;-71
2024/03/27 06:22:42;;;;;;;;;;;;;;;20.67;30.11;97524.06;5001020;28;991;-72
2024/03/27 06:25:09;;;;;;;;;;;;;;;20.84;29.55;97518.34;5000978;28;989;-72
2024/03/27 06:27:34;;;;;;;;;;;;;;;20.87;29.46;97520.25;5001125;28;965;-72
2024/03/27 06:30:00;;;;;;;;;;;;;;;20.95;29.26;97522.41;5017194;28;982;-72
2024/03/27 06:32:26;;;;;;;;;;;;;;;20.91;29.24;97523.78;4968565;28;1247;-71
2024/03/27 06:34:51;;;;;;;;;;;;;;;20.70;29.74;97517.53;5000503;28;1906;-72
2024/03/27 06:37:17;;;;;;;;;;;;;;;20.89;29.69;97524.22;5016840;28;1006;-71
2024/03/27 06:39:43;;;;;;;;;;;;;;;20.81;29.67;97520.81;5000808;28;978;-72
2024/03/27 06:42:09;;;;;;;;;;;;;;;20.73;29.91;97533.63;5049961;28;959;-72
2024/03/27 06:44:35;;;;;;;;;;;;;;;20.83;29.83;97530.88;5058649;28;979;-71
2024/03/27 06:47:00;;;;;;;;;;;;;;;21.09;29.40;97526.84;5057795;28;961;-72
2024/03/27 06:49:32;;;;;;;;;;;;;;;20.99;29.70;97536.47;5019937;28;992;-71
2024/03/27 06:51:57;;;;;;;;;;;;;;;20.90;29.60;97533.50;5036922;28;985;-71
2024/03/27 06:54:23;;;;;;;;;;;;;;;21.09;29.18;97535.31;5003425;28;1979;-72
2024/03/27 06:56:49;;;;;;;;;;;;;;;21.01;29.16;97542.44;5036578;28;1055;-72
2024/03/27 06:59:15;;;;;;;;;;;;;;;20.73;30.01;97539.25;5036228;28;1094;-72
2024/03/27 07:01:40;;;;;;;;;;;;;;;20.38;30.11;97551.59;5003282;28;1005;-72
2024/03/27 07:04:06;;;;;;;;;;;;;;;20.90;30.03;97542.00;5036513;28;1080;-72
2024/03/27 07:06:31;;;;;;;;;;;;;;;20.87;29.91;97551.38;5036404;28;998;-72
2024/03/27 07:08:57;;;;;;;;;;;;;;;21.01;29.48;97548.09;5036373;28;944;-71
2024/03/27 07:11:22;;;;;;;;;;;;;;;20.70;30.16;97551.47;5019558;28;998;-72
2024/03/27 07:13:48;;;;;;;;;;;;;;;20.71;30.02;97553.03;5002781;28;1973;-72
2024/03/27 07:16:13;;;;;;;;;;;;;;;20.58;29.95;97555.06;5019518;28;956;-71
2024/03/27 07:18:39;;;;;;;;;;;;;;;20.65;29.91;97556.88;5019351;28;1020;-72
2024/03/27 07:21:05;;;;;;;;;;;;;;;20.72;30.15;97543.31;5018603;28;1023;-71
2024/03/27 07:23:30;;;;;;;;;;;;;;;20.73;30.07;97544.91;5015917;28;1112;-71
2024/03/27 07:25:56;;;;;;;;;;;;;;;20.91;29.93;97550.00;4983551;28;1064;-72
2024/03/27 07:28:22;;;;;;;;;;;;;;;20.94;29.60;97556.81;4999755;28;1095;-71
2024/03/27 07:30:48;;;;;;;;;;;;;;;20.96;29.49;97557.16;5016114;28;993;-72
2024/03/27 07:33:13;;;;;;;;;;;;;;;20.84;29.79;97555.13;4999671;28;965;-72
2024/03/27 07:35:39;;;;;;;;;;;;;;;20.86;29.62;97546.97;5015698;28;1981;-72
2024/03/27 07:38:05;;;;;;;;;;;;;;;20.56;29.79;97546.22;4999702;28;970;-72
2024/03/27 07:40:30;;;;;;;;;;;;;;;20.66;29.83;97547.94;5015780;28;975;-72
2024/03/27 07:42:56;;;;;;;;;;;;;;;20.44;30.46;97550.59;4999197;28;990;-72
2024/03/27 07:45:22;;;;;;;;;;;;;;;20.61;30.50;97559.81;4999238;28;960;-71
2024/03/27 07:47:49;;;;;;;;;;;;;;;20.61;30.24;97551.31;4999816;28;1006;-72
2024/03/27 07:50:14;;;;;;;;;;;;;;;21.04;29.43;97548.00;4999257;28;951;-72
2024/03/27 07:52:40;;;;;;;;;;;;;;;21.01;29.30;97548.88;5015796;28;1046;-71
2024/03/27 07:55:07;;;;;;;;;;;;;;;20.96;29.18;97540.19;5029237;28;1905;-72
2024/03/27 07:57:33;;;;;;;;;;;;;;;20.76;29.12;97546.81;5039514;28;1143;-72
2024/03/27 07:59:59;;;;;;;;;;;;;;;20.21;30.81;97548.84;5001873;28;1269;-72
2024/03/27 08:02:24;;;;;;;;;;;;;;;20.54;30.55;97554.38;5018157;28;1312;-72
2024/03/27 08:04:50;;;;;;;;;;;;;;;20.86;29.82;97546.97;5034882;28;1410;-73
2024/03/27 08:07:15;;;;;;;;;;;;;;;20.99;29.84;97551.38;5034811;28;1323;-72
2024/03/27 08:09:41;;;;;;;;;;;;;;;20.98;29.70;97546.97;5018533;28;1238;-72
2024/03/27 08:12:07;;;;;;;;;;;;;;;20.89;29.44;97546.84;5018748;28;964;-72
2024/03/27 08:14:32;;;;;;;;;;;;;;;21.13;28.97;97550.13;5034639;28;1917;-72
2024/03/27 08:16:58;;;;;;;;;;;;;;;21.03;29.15;97554.88;5018552;28;1201;-72
2024/03/27 08:19:23;;;;;;;;;;;;;;;20.80;29.43;97544.69;5018234;28;971;-72
2024/03/27 08:21:49;;;;;;;;;;;;;;;20.90;29.32;97547.66;5018157;28;949;-72
2024/03/27 08:24:14;;;;;;;;;;;;;;;20.78;29.77;97547.19;5017431;28;988;-72
2024/03/27 08:26:40;;;;;;;;;;;;;;;20.64;30.31;97536.31;5034726;28;978;-72
2024/03/27 08:29:05;;;;;;;;;;;;;;;20.58;30.16;97538.09;5018103;28;923;-72
2024/03/27 08:31:31;;;;;;;;;;;;;;;20.61;30.52;97537.19;5033637;28;1045;-72
2024/03/27 08:33:56;;;;;;;;;;;;;;;20.90;29.96;97530.69;5038903;28;1918;-72
2024/03/27 08:36:22;;;;;;;;;;;;;;;20.79;29.79;97537.47;5056543;28;958;-72
2024/03/27 08:38:48;;;;;;;;;;;;;;;21.07;29.46;97534.97;5038703;28;1147;-71
2024/03/27 08:41:14;;;;;;;;;;;;;;;20.81;29.84;97540.63;5056390;28;911;-72
2024/03/27 08:43:39;;;;;;;;;;;;;;;20.82;29.63;97527.25;5038641;28;1181;-72
2024/03/27 08:46:05;;;;;;;;;;;;;;;20.73;29.73;97521.50;5038604;28;958;-72
2024/03/27 08:48:30;;;;;;;;;;;;;;;20.95;29.99;97515.97;5038279;28;1124;-72
2024/03/27 08:50:56;;;;;;;;;;;;;;;20.81;29.92;97518.00;5038268;28;1021;-72
2024/03/27 08:53:21;;;;;;;;;;;;;;;20.79;30.14;97523.31;5038546;28;930;-72
2024/03/27 08:55:48;;;;;;;;;;;;;;;20.79;29.98;97520.50;5038537;28;1914;-72
2024/03/27 08:58:13;;;;;;;;;;;;;;;20.81;30.24;97518.00;5054897;28;1465;-72
2024/03/27 09:00:39;;;;;;;;;;;;;;;21.00;29.81;97518.25;5056590;28;902;-72
2024/03/27 09:03:06;;;;;;;;;;;;;;;21.01;29.43;97525.47;5038396;28;1134;-72
2024/03/27 09:05:31;;;;;;;;;;;;;;;20.83;29.52;97508.25;5038882;28;993;-71
2024/03/27 09:07:57;;;;;;;;;;;;;;;20.93;29.60;97507.91;5022167;28;1267;-72
2024/03/27 09:10:23;;;;;;;;;;;;;;;20.65;29.93;97503.97;5022306;28;988;-71
2024/03/27 09:12:49;;;;;;;;;;;;;;;20.61;30.53;97503.28;5021196;28;960;-73
2024/03/27 09:15:14;;;;;;;;;;;;;;;20.57;30.71;97502.59;5038570;28;1964;-73
2024/03/27 09:17:40;;;;;;;;;;;;;;;20.72;30.28;97520.69;5017481;28;1180;-73
2024/03/27 09:20:05;;;;;;;;;;;;;;;20.76;30.27;97524.22;5017422;28;1037;-74
2024/03/27 09:22:34;;;;;;;;;;;;;;;20.64;30.45;97519.34;5017240;28;1153;-73
2024/03/27 09:25:00;;;;;;;;;;;;;;;20.89;29.94;97523.44;4994572;28;1063;-73
2024/03/27 09:27:25;;;;;;;;;;;;;;;20.64;29.85;97522.16;4978003;28;1014;-73
2024/03/27 09:29:51;;;;;;;;;;;;;;;20.60;30.12;97512.22;4978597;28;1095;-73
2024/03/27 09:32:17;;;;;;;;;;;;;;;20.41;30.50;97528.06;4994314;28;1031;-73
2024/03/27 09:34:42;;;;;;;;;;;;;;;20.49;30.82;97529.50;4978296;28;1963;-73
2024/03/27 09:37:08;;;;;;;;;;;;;;;20.74;30.36;97523.88;4997569;28;983;-73
2024/03/27 09:39:33;;;;;;;;;;;;;;;20.80;30.37;97516.41;4982288;28;947;-73
2024/03/27 09:42:02;;;;;;;;;;;;;;;20.73;30.19;97516.66;4982033;28;1024;-74
2024/03/27 09:44:29;;;;;;;;;;;;;;;20.69;30.17;97521.63;4998277;28;1128;-73
2024/03/27 09:46:54;;;;;;;;;;;;;;;20.85;30.01;97523.56;4978789;28;1022;-73
2024/03/27 09:49:20;;;;;;;;;;;;;;;20.72;29.89;97519.91;4946354;28;995;-74
2024/03/27 09:51:45;;;;;;;;;;;;;;;20.81;29.99;97523.66;4962507;28;924;-73
2024/03/27 09:54:11;;;;;;;;;;;;;;;21.03;29.32;97522.97;4959275;29;1915;-73
2024/03/27 09:56:39;;;;;;;;;;;;;;;20.64;30.10;97519.34;5004842;28;1037;-73
2024/03/27 09:59:04;;;;;;;;;;;;;;;20.85;29.85;97522.75;4997718;28;1630;-73
2024/03/27 10:01:33;;;;;;;;;;;;;;;20.96;30.04;97529.66;5014434;28;932;-74
2024/03/27 10:03:59;;;;;;;;;;;;;;;21.05;29.80;97526.94;4981641;28;990;-73
2024/03/27 10:06:24;;;;;;;;;;;;;;;20.95;29.93;97530.13;5014379;28;1014;-74
2024/03/27 10:08:50;;;;;;;;;;;;;;;20.86;30.05;97524.34;4981797;28;963;-73
2024/03/27 10:11:16;;;;;;;;;;;;;;;20.61;30.25;97537.19;4998005;28;997;-73
2024/03/27 10:13:42;;;;;;;;;;;;;;;20.46;30.14;97536.00;4997814;28;1162;-73
2024/03/27 10:16:11;;;;;;;;;;;;;;;20.49;30.64;97535.16;5014202;28;1977;-73
2024/03/27 10:18:39;;;;;;;;;;;;;;;20.55;30.54;97533.34;5016576;28;974;-73
2024/03/27 10:21:05;;;;;;;;;;;;;;;20.64;30.34;97530.66;5004324;28;1284;-73
2024/03/27 10:23:31;;;;;;;;;;;;;;;20.90;29.97;97530.69;4962183;28;1104;-73
2024/03/27 10:25:57;;;;;;;;;;;;;;;20.53;30.66;97530.19;4978157;28;905;-73
2024/03/27 10:28:25;;;;;;;;;;;;;;;20.88;29.73;97533.16;4981398;28;939;-73
2024/03/27 10:30:57;;;;;;;;;;;;;;;20.76;29.89;97537.56;4997675;28;947;-73
2024/03/27 10:33:23;;;;;;;;;;;;;;;20.97;29.39;97530.44;4997578;28;1042;-73
2024/03/27 10:35:48;;;;;;;;;;;;;;;20.76;29.63;97534.72;4980964;28;1906;-73
2024/03/27 10:38:13;;;;;;;;;;;;;;;20.75;29.86;97528.28;4977770;28;1010;-73
2024/03/27 10:40:39;;;;;;;;;;;;;;;20.75;29.78;97531.13;4962125;28;1053;-73
2024/03/27 10:43:12;;;;;;;;;;;;;;;20.66;30.63;97533.03;4961452;28;1013;-73
2024/03/27 10:45:38;;;;;;;;;;;;;;;20.79;30.21;97537.47;4961650;28;998;-74
2024/03/27 10:48:04;;;;;;;;;;;;;;;20.91;30.10;97537.91;4960958;28;1006;-74
2024/03/27 10:50:31;;;;;;;;;;;;;;;20.93;29.94;97541.06;4961531;28;949;-73
2024/03/27 10:52:59;;;;;;;;;;;;;;;20.81;30.17;97534.97;4961577;28;1090;-73
2024/03/27 10:55:24;;;;;;;;;;;;;;;20.73;30.35;97527.97;4997237;28;1982;-73
2024/03/27 10:57:50;;;;;;;;;;;;;;;20.84;29.71;97521.19;5036550;28;967;-73
2024/03/27 11:00:16;;;;;;;;;;;;;;;20.90;29.58;97519.38;5036006;28;1215;-73
2024/03/27 11:02:49;;;;;;;;;;;;;;;20.70;30.23;97511.88;5036200;28;981;-73
2024/03/27 11:05:14;;;;;;;;;;;;;;;20.94;30.09;97515.19;5036458;28;958;-73
2024/03/27 11:07:40;;;;;;;;;;;;;;;20.69;30.43;97504.66;5036194;28;884;-73
2024/03/27 11:10:06;;;;;;;;;;;;;;;20.70;30.38;97494.91;5040487;28;1020;-73
2024/03/27 11:12:32;;;;;;;;;;;;;;;20.74;30.20;97498.44;5040882;28;1006;-73
2024/03/27 11:14:58;;;;;;;;;;;;;;;20.91;29.86;97498.31;5040600;28;1977;-74
2024/03/27 11:17:27;;;;;;;;;;;;;;;20.66;30.02;97494.22;5054872;28;1005;-73
2024/03/27 11:19:56;;;;;;;;;;;;;;;20.89;29.37;97495.97;5040466;28;908;-73
2024/03/27 11:22:23;;;;;;;;;;;;;;;20.73;29.86;97488.38;5040542;28;1160;-74
2024/03/27 11:24:48;;;;;;;;;;;;;;;20.89;30.18;97495.16;5006608;28;1079;-73
2024/03/27 11:27:23;;;;;;;;;;;;;;;20.80;30.27;97476.84;5019306;28;1322;-73
2024/03/27 11:29:53;;;;;;;;;;;;;;;20.93;30.40;97495.81;5019528;28;983;-73
2024/03/27 11:32:18;;;;;;;;;;;;;;;21.00;30.26;97489.97;5019355;28;1141;-73
2024/03/27 11:34:44;;;;;;;;;;;;;;;20.73;30.60;97482.72;5019270;28;1977;-73
2024/03/27 11:37:09;;;;;;;;;;;;;;;20.70;30.63;97480.78;4979966;28;1120;-73
2024/03/27 11:39:35;;;;;;;;;;;;;;;20.88;30.08;97474.59;4980280;28;1095;-73
2024/03/27 11:42:00;;;;;;;;;;;;;;;20.78;30.15;97470.06;4996070;28;1064;-73
2024/03/27 11:44:26;;;;;;;;;;;;;;;20.68;30.28;97468.34;4996468;28;976;-73
2024/03/27 11:46:51;;;;;;;;;;;;;;;20.59;30.63;97460.53;4979824;28;1056;-74
2024/03/27 11:49:17;;;;;;;;;;;;;;;20.60;30.90;97459.28;4963781;28;1153;-73
2024/03/27 11:51:42;;;;;;;;;;;;;;;20.65;30.92;97467.22;4940869;28;1010;-73
2024/03/27 11:54:08;;;;;;;;;;;;;;;20.79;30.47;97461.13;4941113;28;1902;-73
2024/03/27 11:56:34;;;;;;;;;;;;;;;20.73;30.64;97464.97;4941083;28;1063;-73
2024/03/27 11:59:00;;;;;;;;;;;;;;;20.58;30.66;97456.13;4925611;29;1103;-73
2024/03/27 12:01:25;;;;;;;;;;;;;;;20.76;30.18;97459.19;4954092;28;1013;-73
2024/03/27 12:03:51;;;;;;;;;;;;;;;20.94;30.09;97457.84;4953937;29;997;-73
2024/03/27 12:06:17;;;;;;;;;;;;;;;20.88;29.90;97456.78;4953972;28;907;-74
2024/03/27 12:08:43;;;;;;;;;;;;;;;20.69;30.02;97465.06;4971313;28;998;-73
2024/03/27 12:11:08;;;;;;;;;;;;;;;20.99;29.81;97466.53;4937450;29;950;-73
2024/03/27 12:13:37;;;;;;;;;;;;;;;20.77;30.55;97459.97;4937859;29;1120;-73
2024/03/27 12:16:06;;;;;;;;;;;;;;;20.72;30.59;97452.84;4937377;29;1915;-73
2024/03/27 12:18:32;;;;;;;;;;;;;;;20.88;30.62;97451.13;4967931;28;1074;-73
2024/03/27 12:20:57;;;;;;;;;;;;;;;20.99;29.97;97448.78;4959792;28;1575;-73
2024/03/27 12:23:23;;;;;;;;;;;;;;;20.97;30.20;97456.91;4975887;28;973;-73
2024/03/27 12:25:49;;;;;;;;;;;;;;;20.58;30.64;97458.19;4959904;28;1194;-73
2024/03/27 12:28:15;;;;;;;;;;;;;;;20.64;30.41;97457.16;4965140;28;962;-73
2024/03/27 12:30:41;;;;;;;;;;;;;;;20.64;30.58;97451.50;5014460;28;932;-73
2024/03/27 12:33:06;;;;;;;;;;;;;;;20.67;30.28;97444.94;5014684;28;981;-72
2024/03/27 12:35:32;;;;;;;;;;;;;;;20.65;30.10;97453.06;5017805;28;1979;-73
2024/03/27 12:37:57;;;;;;;;;;;;;;;20.85;30.04;97454.91;4985493;28;1206;-74
2024/03/27 12:40:23;;;;;;;;;;;;;;;20.73;30.72;97454.44;5034378;28;999;-73
2024/03/27 12:42:48;;;;;;;;;;;;;;;20.85;30.26;97449.25;5017678;28;944;-73
2024/03/27 12:45:14;;;;;;;;;;;;;;;20.64;30.68;97451.50;5034597;28;1007;-73
2024/03/27 12:47:39;;;;;;;;;;;;;;;20.80;30.31;97442.91;5034903;28;992;-73
2024/03/27 12:50:05;;;;;;;;;;;;;;;20.69;30.49;97453.75;5018111;28;991;-73
2024/03/27 12:52:30;;;;;;;;;;;;;;;20.90;30.00;97457.16;5014550;28;993;-73
2024/03/27 12:54:56;;;;;;;;;;;;;;;20.84;29.98;97447.66;4998041;28;1914;-73